createdAt,value
2019-05-09T00:00:14.254Z,71.70
2019-05-09T00:01:18.750Z,71.20
2019-05-09T00:02:24.904Z,71.00
2019-05-09T00:03:29.439Z,71.30
2019-05-09T00:04:33.936Z,71.20
2019-05-09T00:05:38.408Z,71.40
2019-05-09T00:06:43.137Z,71.40
2019-05-09T00:07:47.659Z,71.20
2019-05-09T00:08:53.359Z,71.10
2019-05-09T00:09:57.991Z,71.20
2019-05-09T00:11:03.755Z,71.40
2019-05-09T00:12:08.472Z,71.20
2019-05-09T00:13:13.641Z,71.50
2019-05-09T00:14:18.420Z,71.20
2019-05-09T00:15:24.186Z,71.00
2019-05-09T00:16:28.868Z,70.90
2019-05-09T00:17:33.898Z,70.90
2019-05-09T00:18:38.448Z,71.20
2019-05-09T00:19:43.857Z,70.90
2019-05-09T00:20:50.149Z,71.00
2019-05-09T00:21:56.082Z,71.20
2019-05-09T00:23:00.625Z,71.30
2019-05-09T00:24:05.166Z,71.40
2019-05-09T00:25:09.808Z,71.40
2019-05-09T00:26:14.293Z,71.10
2019-05-09T00:27:18.761Z,71.20
2019-05-09T00:28:25.141Z,71.40
2019-05-09T00:29:40.201Z,71.40
2019-05-09T00:30:55.094Z,71.40
2019-05-09T00:32:07.284Z,71.00
2019-05-09T00:33:14.297Z,71.50
2019-05-09T00:34:33.789Z,71.70
2019-05-09T00:35:38.630Z,72.00
2019-05-09T00:36:43.811Z,72.00
2019-05-09T00:37:53.850Z,71.80
2019-05-09T00:38:58.328Z,71.50
2019-05-09T00:40:04.063Z,71.90
2019-05-09T00:41:08.930Z,72.10
2019-05-09T00:42:13.764Z,72.00
2019-05-09T00:43:18.490Z,72.30
2019-05-09T00:44:24.597Z,72.60
2019-05-09T00:45:36.540Z,72.20
2019-05-09T00:46:43.155Z,71.90
2019-05-09T00:47:47.777Z,72.30
2019-05-09T00:48:56.874Z,72.10
2019-05-09T00:50:01.592Z,72.40
2019-05-09T00:51:06.055Z,73.40
2019-05-09T00:52:11.055Z,72.60
2019-05-09T00:53:15.559Z,72.60
2019-05-09T00:54:20.095Z,73.00
2019-05-09T00:55:24.569Z,73.30
2019-05-09T00:56:29.041Z,72.90
2019-05-09T00:57:33.631Z,73.80
2019-05-09T00:58:38.172Z,73.50
2019-05-09T00:59:44.535Z,74.10
2019-05-09T01:00:48.904Z,73.40
2019-05-09T01:01:54.338Z,73.40
2019-05-09T01:02:58.996Z,73.30
2019-05-09T01:04:04.458Z,73.90
2019-05-09T01:05:09.661Z,74.00
2019-05-09T01:06:14.318Z,74.10
2019-05-09T01:07:18.806Z,74.20
2019-05-09T01:08:24.182Z,74.70
2019-05-09T01:09:28.709Z,74.10
2019-05-09T01:10:34.256Z,74.30
2019-05-09T01:11:38.896Z,74.60
2019-05-09T01:12:43.672Z,74.60
2019-05-09T01:13:48.153Z,74.40
2019-05-09T01:14:53.874Z,74.40
2019-05-09T01:15:58.447Z,74.60
2019-05-09T01:17:04.194Z,74.80
2019-05-09T01:18:08.891Z,74.30
2019-05-09T01:19:14.121Z,74.70
2019-05-09T01:20:19.344Z,74.80
2019-05-09T01:21:24.219Z,74.40
2019-05-09T01:22:28.797Z,74.60
2019-05-09T01:23:34.428Z,74.80
2019-05-09T01:24:39.049Z,74.70
2019-05-09T01:25:43.668Z,75.20
2019-05-09T01:26:48.201Z,75.00
2019-05-09T01:27:53.895Z,75.00
2019-05-09T01:28:58.502Z,75.60
2019-05-09T01:30:04.533Z,75.30
2019-05-09T01:31:09.363Z,75.00
2019-05-09T01:32:34.149Z,75.00
2019-05-09T01:33:39.372Z,75.10
2019-05-09T01:34:43.906Z,75.30
2019-05-09T01:35:48.464Z,75.40
2019-05-09T01:37:06.481Z,75.30
2019-05-09T01:38:10.962Z,75.70
2019-05-09T01:39:15.607Z,75.40
2019-05-09T01:40:20.102Z,75.50
2019-05-09T01:41:30.325Z,75.70
2019-05-09T01:42:30.998Z,75.40
2019-05-09T01:43:35.488Z,75.50
2019-05-09T01:44:39.980Z,75.30
2019-05-09T01:45:46.925Z,75.30
2019-05-09T01:46:50.603Z,75.30
2019-05-09T01:47:55.095Z,75.60
2019-05-09T01:48:59.611Z,75.10
2019-05-09T01:50:05.042Z,75.20
2019-05-09T01:51:09.577Z,75.50
2019-05-09T01:52:14.044Z,75.60
2019-05-09T01:53:20.154Z,75.20
2019-05-09T01:54:25.554Z,75.10
2019-05-09T01:55:47.977Z,75.20
2019-05-09T01:58:55.449Z,75.40
2019-05-09T01:59:59.958Z,75.10
2019-05-09T02:01:06.171Z,74.80
2019-05-09T02:02:11.442Z,74.80
2019-05-09T02:03:15.901Z,74.90
2019-05-09T02:04:20.376Z,75.10
2019-05-09T02:05:24.897Z,74.90
2019-05-09T02:06:29.576Z,74.80
2019-05-09T02:07:34.051Z,74.80
2019-05-09T02:08:38.520Z,74.80
2019-05-09T02:09:43.525Z,74.80
2019-05-09T02:10:48.096Z,74.80
2019-05-09T02:11:54.543Z,74.80
2019-05-09T02:12:58.809Z,74.80
2019-05-09T02:14:04.153Z,74.80
2019-05-09T02:15:13.487Z,74.90
2019-05-09T02:16:28.219Z,74.70
2019-05-09T02:17:58.865Z,74.70
2019-05-09T02:19:00.122Z,74.80
2019-05-09T02:20:05.424Z,74.60
2019-05-09T02:21:12.307Z,74.60
2019-05-09T02:22:34.936Z,74.50
2019-05-09T02:23:39.473Z,74.60
2019-05-09T02:24:44.130Z,74.90
2019-05-09T02:25:48.595Z,74.60
2019-05-09T02:26:53.410Z,74.80
2019-05-09T02:27:57.930Z,74.90
2019-05-09T02:29:03.229Z,75.10
2019-05-09T02:30:10.493Z,74.70
2019-05-09T02:31:16.151Z,74.70
2019-05-09T02:32:23.747Z,74.80
2019-05-09T02:33:27.316Z,74.80
2019-05-09T02:34:35.343Z,75.10
2019-05-09T02:35:47.915Z,75.10
2019-05-09T02:36:44.196Z,74.90
2019-05-09T02:37:49.871Z,74.70
2019-05-09T02:38:54.533Z,74.80
2019-05-09T02:39:59.376Z,74.90
2019-05-09T02:41:03.873Z,74.80
2019-05-09T02:42:13.345Z,74.80
2019-05-09T02:43:14.825Z,74.80
2019-05-09T02:44:19.854Z,74.80
2019-05-09T02:45:28.401Z,74.80
2019-05-09T02:46:50.501Z,74.80
2019-05-09T02:47:54.973Z,75.00
2019-05-09T02:48:59.710Z,74.60
2019-05-09T02:50:09.006Z,74.60
2019-05-09T02:51:13.446Z,74.40
2019-05-09T02:52:19.773Z,74.60
2019-05-09T02:53:24.108Z,74.40
2019-05-09T02:54:29.716Z,74.40
2019-05-09T02:55:34.748Z,74.50
2019-05-09T02:56:39.206Z,74.60
2019-05-09T02:57:44.451Z,74.40
2019-05-09T02:59:09.637Z,74.40
2019-05-09T03:00:20.141Z,74.30
2019-05-09T03:01:34.065Z,74.30
2019-05-09T03:02:40.304Z,74.30
2019-05-09T03:03:44.780Z,74.10
2019-05-09T03:04:49.262Z,74.10
2019-05-09T03:05:53.816Z,74.00
2019-05-09T03:06:59.666Z,74.20
2019-05-09T03:08:04.663Z,74.00
2019-05-09T03:09:09.307Z,74.30
2019-05-09T03:10:14.259Z,74.30
2019-05-09T03:11:18.987Z,74.20
2019-05-09T03:12:34.368Z,74.30
2019-05-09T03:13:30.277Z,74.30
2019-05-09T03:14:35.070Z,74.40
2019-05-09T03:15:40.024Z,74.20
2019-05-09T03:16:44.516Z,74.20
2019-05-09T03:17:50.034Z,74.10
2019-05-09T03:18:54.705Z,74.10
2019-05-09T03:19:59.219Z,74.20
2019-05-09T03:21:20.175Z,74.10
2019-05-09T03:22:24.863Z,74.10
2019-05-09T03:23:29.347Z,74.00
2019-05-09T03:24:33.808Z,74.10
2019-05-09T03:25:40.957Z,73.90
2019-05-09T03:26:49.294Z,73.80
2019-05-09T03:28:05.536Z,73.90
2019-05-09T03:29:11.649Z,73.90
2019-05-09T03:30:29.685Z,73.90
2019-05-09T03:31:39.060Z,74.00
2019-05-09T03:32:42.005Z,73.90
2019-05-09T03:33:50.154Z,73.90
2019-05-09T03:34:52.994Z,73.90
2019-05-09T03:35:57.668Z,73.70
2019-05-09T03:37:02.230Z,73.80
2019-05-09T03:38:08.098Z,73.70
2019-05-09T03:39:12.954Z,74.60
2019-05-09T03:40:18.065Z,74.00
2019-05-09T03:41:22.560Z,74.00
2019-05-09T03:42:38.057Z,74.10
2019-05-09T03:43:33.222Z,74.10
2019-05-09T03:44:38.540Z,74.20
2019-05-09T03:45:58.535Z,74.10
2019-05-09T03:47:04.774Z,74.20
2019-05-09T03:48:10.910Z,74.10
2019-05-09T03:49:17.984Z,74.30
2019-05-09T03:50:22.666Z,74.40
2019-05-09T03:51:27.519Z,74.40
2019-05-09T03:52:32.097Z,74.40
2019-05-09T03:53:37.957Z,74.40
2019-05-09T03:54:42.525Z,74.40
2019-05-09T03:55:47.534Z,74.40
2019-05-09T03:56:59.778Z,74.40
2019-05-09T03:58:07.496Z,74.50
2019-05-09T03:59:12.120Z,74.30
2019-05-09T04:00:18.029Z,74.10
2019-05-09T04:01:22.623Z,74.10
2019-05-09T04:02:28.176Z,74.00
2019-05-09T04:03:32.812Z,74.00
2019-05-09T04:04:38.356Z,73.90
2019-05-09T04:05:55.371Z,73.90
2019-05-09T04:06:49.497Z,73.80
2019-05-09T04:07:55.596Z,73.70
2019-05-09T04:09:00.120Z,73.60
2019-05-09T04:10:07.737Z,73.60
2019-05-09T04:11:12.376Z,73.60
2019-05-09T04:12:18.165Z,73.60
2019-05-09T04:13:24.616Z,73.40
2019-05-09T04:14:30.756Z,73.30
2019-05-09T04:15:37.892Z,73.30
2019-05-09T04:16:41.761Z,73.50
2019-05-09T04:17:47.533Z,73.60
2019-05-09T04:18:52.279Z,73.60
2019-05-09T04:19:57.824Z,73.50
2019-05-09T04:21:02.573Z,73.50
2019-05-09T04:22:08.061Z,73.40
2019-05-09T04:23:12.720Z,73.50
2019-05-09T04:24:17.755Z,73.60
2019-05-09T04:25:23.998Z,73.60
2019-05-09T04:26:38.001Z,73.60
2019-05-09T04:27:43.872Z,73.60
2019-05-09T04:28:48.366Z,73.70
2019-05-09T04:29:52.892Z,73.70
2019-05-09T04:30:58.119Z,73.80
2019-05-09T04:32:02.719Z,73.80
2019-05-09T04:33:07.367Z,73.80
2019-05-09T04:34:12.086Z,73.90
2019-05-09T04:35:17.560Z,73.80
2019-05-09T04:36:23.876Z,73.90
2019-05-09T04:37:31.043Z,73.70
2019-05-09T04:38:34.737Z,73.70
2019-05-09T04:39:40.746Z,73.70
2019-05-09T04:40:46.643Z,73.70
2019-05-09T04:41:55.051Z,73.70
2019-05-09T04:43:11.005Z,73.90
2019-05-09T04:44:14.173Z,73.90
2019-05-09T04:45:17.712Z,73.90
2019-05-09T04:46:24.441Z,73.90
2019-05-09T04:47:28.510Z,73.90
2019-05-09T04:48:34.752Z,73.90
2019-05-09T04:49:40.877Z,74.00
2019-05-09T04:50:47.475Z,74.00
2019-05-09T04:51:51.640Z,74.00
2019-05-09T04:52:58.035Z,74.00
2019-05-09T04:54:02.574Z,73.90
2019-05-09T04:55:07.953Z,73.90
2019-05-09T04:56:14.123Z,74.00
2019-05-09T04:57:18.642Z,74.00
2019-05-09T04:58:23.117Z,74.10
2019-05-09T04:59:28.303Z,74.10
2019-05-09T05:00:34.698Z,74.10
2019-05-09T05:01:58.118Z,74.20
2019-05-09T05:03:02.252Z,74.20
2019-05-09T05:04:07.796Z,74.10
2019-05-09T05:05:13.153Z,74.00
2019-05-09T05:06:20.586Z,74.10
2019-05-09T05:07:24.099Z,74.90
2019-05-09T05:08:28.659Z,74.10
2019-05-09T05:09:33.229Z,74.10
2019-05-09T05:10:37.836Z,74.20
2019-05-09T05:11:42.307Z,74.20
2019-05-09T05:12:48.454Z,74.10
2019-05-09T05:13:53.204Z,74.00
2019-05-09T05:14:58.054Z,74.00
2019-05-09T05:16:02.892Z,74.10
2019-05-09T05:17:11.182Z,74.20
2019-05-09T05:18:13.634Z,74.20
2019-05-09T05:19:18.203Z,74.20
2019-05-09T05:20:24.302Z,74.30
2019-05-09T05:21:28.783Z,74.30
2019-05-09T05:22:34.914Z,74.20
2019-05-09T05:23:50.242Z,74.10
2019-05-09T05:24:59.434Z,74.00
2019-05-09T05:26:02.544Z,74.00
2019-05-09T05:27:08.260Z,73.80
2019-05-09T05:28:12.915Z,73.90
2019-05-09T05:29:17.819Z,73.90
2019-05-09T05:30:22.514Z,74.00
2019-05-09T05:31:28.526Z,74.00
2019-05-09T05:32:38.623Z,74.00
2019-05-09T05:34:01.063Z,74.70
2019-05-09T05:35:08.218Z,73.90
2019-05-09T05:36:14.365Z,73.60
2019-05-09T05:37:18.918Z,73.50
2019-05-09T05:38:23.414Z,73.30
2019-05-09T05:39:28.463Z,73.40
2019-05-09T05:40:34.059Z,73.30
2019-05-09T05:41:38.854Z,73.30
2019-05-09T05:42:43.332Z,73.30
2019-05-09T05:43:48.045Z,73.10
2019-05-09T05:44:52.694Z,73.10
2019-05-09T05:45:58.822Z,73.00
2019-05-09T05:47:07.803Z,73.10
2019-05-09T05:48:13.912Z,73.40
2019-05-09T05:49:18.713Z,73.60
2019-05-09T05:50:23.263Z,73.30
2019-05-09T05:51:27.845Z,73.30
2019-05-09T05:52:32.473Z,73.40
2019-05-09T05:53:38.033Z,73.30
2019-05-09T05:54:42.649Z,73.10
2019-05-09T05:55:50.430Z,72.90
2019-05-09T05:56:53.383Z,72.50
2019-05-09T05:57:58.054Z,72.10
2019-05-09T05:59:02.661Z,71.90
2019-05-09T06:00:08.165Z,71.50
2019-05-09T06:01:12.716Z,71.50
2019-05-09T06:02:17.845Z,71.60
2019-05-09T06:03:22.574Z,71.70
2019-05-09T06:04:27.635Z,71.40
2019-05-09T06:05:32.194Z,71.10
2019-05-09T06:06:37.575Z,71.20
2019-05-09T06:07:42.363Z,71.10
2019-05-09T06:08:48.538Z,71.10
2019-05-09T06:09:53.404Z,71.20
2019-05-09T06:10:57.928Z,71.30
2019-05-09T06:12:02.424Z,71.10
2019-05-09T06:13:07.939Z,71.10
2019-05-09T06:14:12.544Z,71.00
2019-05-09T06:15:18.256Z,72.80
2019-05-09T06:16:23.134Z,70.60
2019-05-09T06:17:28.640Z,70.40
2019-05-09T06:18:33.421Z,70.00
2019-05-09T06:19:38.266Z,69.80
2019-05-09T06:20:45.626Z,69.80
2019-05-09T06:21:52.354Z,69.90
2019-05-09T06:22:57.964Z,69.90
2019-05-09T06:24:01.861Z,69.90
2019-05-09T06:25:09.588Z,69.70
2019-05-09T06:26:12.773Z,69.70
2019-05-09T06:27:18.242Z,69.40
2019-05-09T06:28:22.922Z,69.30
2019-05-09T06:29:28.597Z,69.40
2019-05-09T06:30:33.530Z,69.10
2019-05-09T06:31:38.152Z,69.10
2019-05-09T06:32:42.627Z,68.80
2019-05-09T06:33:53.184Z,68.90
2019-05-09T06:34:53.376Z,68.90
2019-05-09T06:35:59.019Z,68.80
2019-05-09T06:37:03.685Z,68.70
2019-05-09T06:38:08.217Z,68.60
2019-05-09T06:39:12.766Z,68.60
2019-05-09T06:40:22.358Z,68.50
2019-05-09T06:41:28.535Z,68.20
2019-05-09T06:42:33.304Z,68.20
2019-05-09T06:43:51.417Z,68.10
2019-05-09T06:45:00.183Z,68.10
2019-05-09T06:46:09.001Z,68.00
2019-05-09T06:47:24.081Z,67.30
2019-05-09T06:48:28.578Z,66.90
2019-05-09T06:49:37.754Z,66.90
2019-05-09T06:50:42.374Z,66.80
2019-05-09T06:51:47.651Z,66.80
2019-05-09T06:52:52.225Z,67.50
2019-05-09T06:53:58.527Z,66.70
2019-05-09T06:55:03.429Z,66.60
2019-05-09T06:56:07.981Z,66.40
2019-05-09T06:57:12.693Z,66.50
2019-05-09T06:58:38.357Z,66.40
2019-05-09T06:59:43.024Z,65.90
2019-05-09T07:00:49.143Z,65.40
2019-05-09T07:01:57.454Z,65.50
2019-05-09T07:03:08.038Z,65.80
2019-05-09T07:04:27.522Z,65.50
2019-05-09T07:05:33.163Z,65.40
2019-05-09T07:06:39.278Z,65.30
2019-05-09T07:07:57.652Z,65.10
2019-05-09T07:09:08.380Z,65.20
2019-05-09T07:10:13.085Z,65.20
2019-05-09T07:11:19.190Z,65.10
2019-05-09T07:12:23.820Z,65.10
2019-05-09T07:13:28.304Z,65.10
2019-05-09T07:14:38.253Z,64.90
2019-05-09T07:15:40.589Z,64.50
2019-05-09T07:16:45.255Z,64.30
2019-05-09T07:17:49.759Z,64.10
2019-05-09T07:18:54.247Z,64.20
2019-05-09T07:19:59.141Z,64.10
2019-05-09T07:21:03.804Z,63.70
2019-05-09T07:22:18.163Z,63.90
2019-05-09T07:23:22.297Z,63.90
2019-05-09T07:24:28.660Z,63.90
2019-05-09T07:25:47.842Z,63.10
2019-05-09T07:26:52.477Z,63.10
2019-05-09T07:27:58.697Z,63.20
2019-05-09T07:29:03.282Z,62.80
2019-05-09T07:30:25.488Z,62.90
2019-05-09T07:31:49.622Z,63.00
2019-05-09T07:32:58.478Z,62.80
2019-05-09T07:34:13.524Z,63.00
2019-05-09T07:35:18.713Z,62.90
2019-05-09T07:36:23.306Z,62.70
2019-05-09T07:37:27.794Z,62.40
2019-05-09T07:38:33.228Z,62.00
2019-05-09T07:39:38.042Z,61.60
2019-05-09T07:40:42.649Z,61.70
2019-05-09T07:41:47.806Z,61.60
2019-05-09T07:42:52.435Z,61.70
2019-05-09T07:43:58.325Z,61.80
2019-05-09T07:45:03.560Z,61.00
2019-05-09T07:46:28.853Z,61.20
2019-05-09T07:47:33.516Z,61.30
2019-05-09T07:48:39.765Z,61.50
2019-05-09T07:49:44.337Z,60.70
2019-05-09T07:50:48.831Z,61.00
2019-05-09T07:51:53.366Z,61.10
2019-05-09T07:52:58.364Z,61.10
2019-05-09T07:55:09.056Z,60.30
2019-05-09T07:56:13.713Z,60.90
2019-05-09T07:57:18.395Z,60.80
2019-05-09T07:58:22.904Z,60.00
2019-05-09T07:59:27.588Z,59.60
2019-05-09T08:00:34.007Z,59.50
2019-05-09T08:01:38.638Z,59.10
2019-05-09T08:02:43.090Z,59.10
2019-05-09T08:03:48.993Z,58.70
2019-05-09T08:04:53.641Z,58.70
2019-05-09T08:05:58.185Z,58.70
2019-05-09T08:07:02.913Z,58.80
2019-05-09T08:08:10.465Z,58.60
2019-05-09T08:09:15.017Z,58.80
2019-05-09T08:10:19.502Z,58.30
2019-05-09T08:11:23.958Z,58.40
2019-05-09T08:12:28.610Z,58.40
2019-05-09T08:13:33.135Z,57.60
2019-05-09T08:14:37.908Z,58.00
2019-05-09T08:15:42.479Z,57.90
2019-05-09T08:16:47.549Z,57.70
2019-05-09T08:17:52.310Z,57.40
2019-05-09T08:18:57.783Z,57.70
2019-05-09T08:20:02.700Z,57.70
2019-05-09T08:21:08.488Z,57.60
2019-05-09T08:22:13.121Z,57.70
2019-05-09T08:23:18.099Z,57.80
2019-05-09T08:24:22.668Z,57.80
2019-05-09T08:25:27.870Z,57.60
2019-05-09T08:26:32.542Z,57.40
2019-05-09T08:27:37.833Z,57.20
2019-05-09T08:28:42.568Z,57.10
2019-05-09T08:29:47.880Z,56.70
2019-05-09T08:30:52.513Z,56.40
2019-05-09T08:31:58.253Z,56.40
2019-05-09T08:33:03.068Z,56.10
2019-05-09T08:34:08.302Z,55.80
2019-05-09T08:35:12.912Z,55.90
2019-05-09T08:36:18.073Z,55.70
2019-05-09T08:37:23.549Z,55.50
2019-05-09T08:38:28.467Z,56.00
2019-05-09T08:39:33.086Z,56.00
2019-05-09T08:40:38.171Z,56.20
2019-05-09T08:41:42.998Z,56.30
2019-05-09T08:42:48.078Z,56.00
2019-05-09T08:43:52.703Z,57.10
2019-05-09T08:44:57.776Z,56.60
2019-05-09T08:46:02.356Z,56.60
2019-05-09T08:47:07.833Z,56.50
2019-05-09T08:48:12.497Z,56.20
2019-05-09T08:49:18.302Z,56.10
2019-05-09T08:50:39.555Z,56.00
2019-05-09T08:52:06.140Z,55.30
2019-05-09T08:52:54.432Z,55.10
2019-05-09T08:53:58.903Z,55.20
2019-05-09T08:55:03.883Z,54.90
2019-05-09T08:56:10.987Z,55.00
2019-05-09T08:57:14.608Z,54.70
2019-05-09T08:58:19.894Z,54.00
2019-05-09T08:59:24.624Z,53.80
2019-05-09T09:00:29.081Z,53.00
2019-05-09T09:02:39.612Z,52.00
2019-05-09T09:03:44.105Z,52.30
2019-05-09T09:04:49.060Z,52.00
2019-05-09T09:05:53.691Z,52.50
2019-05-09T09:06:58.191Z,52.00
2019-05-09T09:08:02.744Z,51.80
2019-05-09T09:09:08.079Z,52.20
2019-05-09T09:10:13.265Z,52.10
2019-05-09T09:11:18.795Z,51.90
2019-05-09T09:12:31.363Z,51.80
2019-05-09T09:13:29.636Z,52.10
2019-05-09T09:14:34.233Z,52.10
2019-05-09T09:16:44.961Z,52.00
2019-05-09T09:17:49.519Z,52.00
2019-05-09T09:18:54.073Z,52.00
2019-05-09T09:19:58.600Z,51.90
2019-05-09T09:21:03.169Z,51.70
2019-05-09T09:22:08.830Z,51.70
2019-05-09T09:23:13.563Z,52.40
2019-05-09T09:24:18.286Z,51.70
2019-05-09T09:25:22.747Z,51.80
2019-05-09T09:26:27.870Z,52.00
2019-05-09T09:27:33.274Z,51.90
2019-05-09T09:28:38.094Z,51.70
2019-05-09T09:29:42.716Z,51.30
2019-05-09T09:30:48.479Z,51.00
2019-05-09T09:31:53.186Z,50.70
2019-05-09T09:32:58.546Z,50.60
2019-05-09T09:34:03.485Z,50.10
2019-05-09T09:35:09.556Z,50.00
2019-05-09T09:36:14.041Z,49.60
2019-05-09T09:37:18.782Z,49.10
2019-05-09T09:38:23.299Z,49.30
2019-05-09T09:39:31.038Z,48.60
2019-05-09T09:40:33.988Z,48.80
2019-05-09T09:41:38.956Z,49.30
2019-05-09T09:42:43.564Z,49.70
2019-05-09T09:43:48.030Z,48.80
2019-05-09T09:44:52.529Z,49.50
2019-05-09T09:46:10.091Z,49.20
2019-05-09T09:47:03.167Z,48.70
2019-05-09T09:48:09.009Z,48.90
2019-05-09T09:49:13.858Z,48.30
2019-05-09T09:50:18.443Z,48.70
2019-05-09T09:51:22.909Z,48.60
2019-05-09T09:52:29.346Z,48.70
2019-05-09T09:53:33.567Z,48.20
2019-05-09T09:54:38.677Z,47.80
2019-05-09T09:55:43.325Z,47.70
2019-05-09T09:56:49.517Z,47.70
2019-05-09T09:57:54.046Z,47.60
2019-05-09T09:59:09.128Z,48.20
2019-05-09T10:00:25.602Z,47.60
2019-05-09T10:01:31.719Z,48.10
2019-05-09T10:02:38.008Z,48.20
2019-05-09T10:03:42.541Z,47.80
2019-05-09T10:04:47.096Z,47.40
2019-05-09T10:05:51.568Z,48.00
2019-05-09T10:06:58.306Z,48.10
2019-05-09T10:08:02.521Z,48.20
2019-05-09T10:09:09.389Z,48.30
2019-05-09T10:10:31.913Z,47.80
2019-05-09T10:11:36.375Z,48.00
2019-05-09T10:12:44.399Z,47.20
2019-05-09T10:13:48.073Z,47.40
2019-05-09T10:15:03.929Z,47.40
2019-05-09T10:16:25.608Z,47.20
2019-05-09T10:17:35.497Z,46.70
2019-05-09T10:18:41.672Z,46.20
2019-05-09T10:19:56.573Z,45.80
2019-05-09T10:21:02.765Z,45.60
2019-05-09T10:22:23.981Z,45.20
2019-05-09T10:23:24.294Z,44.90
2019-05-09T10:24:28.756Z,44.20
2019-05-09T10:25:33.290Z,43.70
2019-05-09T10:26:39.071Z,43.40
2019-05-09T10:27:44.667Z,43.40
2019-05-09T10:28:49.162Z,42.90
2019-05-09T10:29:53.645Z,42.70
2019-05-09T10:30:58.191Z,43.00
2019-05-09T10:32:03.209Z,43.40
2019-05-09T10:33:09.255Z,43.80
2019-05-09T10:34:13.958Z,44.10
2019-05-09T10:35:22.842Z,44.20
2019-05-09T10:36:27.856Z,44.60
2019-05-09T10:37:32.564Z,44.80
2019-05-09T10:38:38.613Z,44.20
2019-05-09T10:40:48.496Z,42.70
2019-05-09T10:41:53.681Z,43.00
2019-05-09T10:43:02.529Z,42.80
2019-05-09T10:44:08.800Z,42.40
2019-05-09T10:45:30.823Z,42.10
2019-05-09T10:46:56.821Z,41.00
2019-05-09T10:47:51.845Z,40.80
2019-05-09T10:48:58.755Z,41.20
2019-05-09T10:50:04.963Z,40.90
2019-05-09T10:51:10.701Z,40.80
2019-05-09T10:52:18.042Z,40.90
2019-05-09T10:53:21.481Z,40.70
2019-05-09T10:54:27.836Z,40.80
2019-05-09T10:55:32.227Z,40.80
2019-05-09T10:56:38.376Z,40.70
2019-05-09T10:57:43.416Z,40.40
2019-05-09T10:58:48.451Z,40.20
2019-05-09T10:59:53.036Z,40.40
2019-05-09T11:00:58.684Z,40.50
2019-05-09T11:02:03.611Z,40.50
2019-05-09T11:03:08.705Z,40.60
2019-05-09T11:04:13.574Z,40.80
2019-05-09T11:05:18.515Z,40.80
2019-05-09T11:06:23.208Z,40.80
2019-05-09T11:07:28.964Z,41.00
2019-05-09T11:08:33.720Z,41.20
2019-05-09T11:09:39.065Z,41.40
2019-05-09T11:10:44.154Z,41.70
2019-05-09T11:11:48.683Z,42.10
2019-05-09T11:12:53.171Z,42.40
2019-05-09T11:13:58.669Z,42.70
2019-05-09T11:15:04.714Z,43.00
2019-05-09T11:16:09.208Z,43.20
2019-05-09T11:17:18.465Z,43.30
2019-05-09T11:18:19.846Z,43.50
2019-05-09T11:19:24.350Z,43.70
2019-05-09T11:20:28.858Z,43.90
2019-05-09T11:21:33.365Z,44.10
2019-05-09T11:22:38.654Z,44.20
2019-05-09T11:23:43.540Z,44.40
2019-05-09T11:24:51.099Z,44.60
2019-05-09T11:25:54.278Z,44.70
2019-05-09T11:26:58.945Z,44.90
2019-05-09T11:28:11.086Z,45.70
2019-05-09T11:29:09.697Z,45.30
2019-05-09T11:30:14.316Z,45.60
2019-05-09T11:31:19.204Z,45.90
2019-05-09T11:32:23.878Z,46.20
2019-05-09T11:33:28.346Z,46.50
2019-05-09T11:34:32.843Z,46.90
2019-05-09T11:35:37.951Z,46.90
2019-05-09T11:36:43.683Z,47.10
2019-05-09T11:37:48.613Z,47.30
2019-05-09T11:38:53.389Z,47.60
2019-05-09T11:39:58.224Z,48.00
2019-05-09T11:41:02.746Z,48.30
2019-05-09T11:42:07.241Z,48.40
2019-05-09T11:43:11.705Z,48.50
2019-05-09T11:44:18.302Z,48.90
2019-05-09T11:45:22.450Z,49.20
2019-05-09T11:46:28.791Z,49.80
2019-05-09T11:47:41.512Z,49.50
2019-05-09T11:48:39.287Z,49.80
2019-05-09T11:49:43.828Z,49.20
2019-05-09T11:50:48.349Z,49.20
2019-05-09T11:51:52.852Z,49.10
2019-05-09T11:52:59.951Z,49.10
2019-05-09T11:54:03.635Z,49.70
2019-05-09T11:55:28.152Z,49.90
2019-05-09T11:56:14.612Z,50.50
2019-05-09T11:57:19.310Z,50.70
2019-05-09T11:58:23.772Z,50.90
2019-05-09T11:59:28.281Z,50.90
2019-05-09T12:00:32.869Z,51.10
2019-05-09T12:01:39.702Z,51.90
2019-05-09T12:02:43.555Z,51.60
2019-05-09T12:03:51.919Z,51.80
2019-05-09T12:04:54.293Z,52.20
2019-05-09T12:05:58.786Z,52.20
2019-05-09T12:07:03.282Z,52.00
2019-05-09T12:08:08.437Z,51.80
2019-05-09T12:09:14.831Z,51.80
2019-05-09T12:10:19.350Z,51.70
2019-05-09T12:11:24.102Z,51.60
2019-05-09T12:12:28.604Z,52.20
2019-05-09T12:13:33.182Z,51.20
2019-05-09T12:14:38.259Z,51.40
2019-05-09T12:15:42.955Z,50.00
2019-05-09T12:16:48.202Z,50.40
2019-05-09T12:17:58.219Z,48.30
2019-05-09T12:18:58.954Z,48.00
2019-05-09T12:20:12.189Z,48.60
2019-05-09T12:21:10.938Z,48.50
2019-05-09T12:22:15.420Z,48.40
2019-05-09T12:23:20.155Z,47.10
2019-05-09T12:24:24.657Z,46.70
2019-05-09T12:25:29.123Z,45.70
2019-05-09T12:26:33.622Z,45.80
2019-05-09T12:27:38.130Z,45.20
2019-05-09T12:28:42.712Z,45.00
2019-05-09T12:29:48.341Z,45.40
2019-05-09T12:30:53.004Z,43.90
2019-05-09T12:31:57.555Z,45.40
2019-05-09T12:33:02.034Z,43.50
2019-05-09T12:34:08.969Z,42.60
2019-05-09T12:35:12.968Z,42.30
2019-05-09T12:36:19.075Z,42.70
2019-05-09T12:37:23.935Z,42.20
2019-05-09T12:38:28.433Z,42.40
2019-05-09T12:39:32.921Z,41.30
2019-05-09T12:40:38.891Z,41.50
2019-05-09T12:41:43.489Z,40.90
2019-05-09T12:42:50.100Z,40.90
2019-05-09T12:43:54.142Z,39.60
2019-05-09T12:44:59.065Z,39.30
2019-05-09T12:46:03.732Z,39.70
2019-05-09T12:47:08.187Z,39.80
2019-05-09T12:48:15.647Z,39.70
2019-05-09T12:49:19.178Z,39.40
2019-05-09T12:50:23.883Z,39.60
2019-05-09T12:51:28.536Z,39.70
2019-05-09T12:52:33.030Z,39.60
2019-05-09T12:53:39.581Z,39.40
2019-05-09T12:54:43.770Z,39.10
2019-05-09T12:55:49.889Z,39.20
2019-05-09T12:56:54.375Z,39.70
2019-05-09T12:57:59.574Z,39.70
2019-05-09T12:59:04.197Z,39.60
2019-05-09T13:00:09.278Z,39.20
2019-05-09T13:01:13.807Z,38.40
2019-05-09T13:02:18.333Z,38.10
2019-05-09T13:03:22.822Z,38.20
2019-05-09T13:04:28.113Z,37.30
2019-05-09T13:05:32.843Z,37.20
2019-05-09T13:06:38.107Z,37.70
2019-05-09T13:07:42.690Z,37.70
2019-05-09T13:08:48.008Z,37.90
2019-05-09T13:09:53.039Z,37.60
2019-05-09T13:10:58.373Z,37.90
2019-05-09T13:12:03.064Z,38.20
2019-05-09T13:13:08.682Z,38.40
2019-05-09T13:14:13.480Z,38.80
2019-05-09T13:15:20.786Z,38.30
2019-05-09T13:16:42.758Z,37.00
2019-05-09T13:17:41.386Z,37.60
2019-05-09T13:19:02.627Z,36.70
2019-05-09T13:20:08.866Z,36.30
2019-05-09T13:21:13.415Z,36.00
2019-05-09T13:22:18.505Z,35.40
2019-05-09T13:23:23.176Z,35.70
2019-05-09T13:24:28.368Z,35.50
2019-05-09T13:25:32.915Z,35.70
2019-05-09T13:26:38.494Z,36.00
2019-05-09T13:27:43.392Z,36.60
2019-05-09T13:28:48.889Z,36.60
2019-05-09T13:29:53.632Z,37.40
2019-05-09T13:30:58.565Z,37.10
2019-05-09T13:32:03.342Z,36.80
2019-05-09T13:33:10.774Z,36.50
2019-05-09T13:34:14.009Z,36.20
2019-05-09T13:35:19.808Z,35.90
2019-05-09T13:36:24.799Z,35.40
2019-05-09T13:37:29.668Z,35.40
2019-05-09T13:38:34.335Z,35.50
2019-05-09T13:39:39.631Z,35.30
2019-05-09T13:40:44.410Z,35.40
2019-05-09T13:41:48.960Z,35.60
2019-05-09T13:42:53.479Z,35.60
2019-05-09T13:44:04.683Z,35.90
2019-05-09T13:45:08.115Z,36.00
2019-05-09T13:46:11.985Z,35.90
2019-05-09T13:47:17.922Z,35.50
2019-05-09T13:48:37.032Z,35.70
2019-05-09T13:49:28.750Z,35.70
2019-05-09T13:50:33.278Z,35.70
2019-05-09T13:51:47.655Z,35.80
2019-05-09T13:52:43.983Z,36.00
2019-05-09T13:53:48.554Z,36.20
2019-05-09T13:54:53.081Z,36.20
2019-05-09T13:55:57.888Z,36.40
2019-05-09T13:57:02.601Z,36.40
2019-05-09T13:58:07.447Z,36.60
2019-05-09T13:59:12.159Z,36.60
2019-05-09T14:00:18.425Z,36.70
2019-05-09T14:01:23.223Z,36.70
2019-05-09T14:02:29.038Z,36.70
2019-05-09T14:03:33.999Z,36.70
2019-05-09T14:04:39.549Z,36.80
2019-05-09T14:05:44.406Z,36.70
2019-05-09T14:06:48.993Z,36.60
2019-05-09T14:07:55.681Z,36.60
2019-05-09T14:09:00.044Z,36.70
2019-05-09T14:10:08.846Z,36.40
2019-05-09T14:11:12.931Z,36.30
2019-05-09T14:12:17.736Z,36.20
2019-05-09T14:13:23.528Z,35.90
2019-05-09T14:14:28.253Z,36.20
2019-05-09T14:15:32.891Z,36.40
2019-05-09T14:16:38.976Z,36.50